createdAt,value
2023-03-15T00:00:00.693Z,5.3
2023-03-15T00:05:00.773Z,5.3
2023-03-15T00:10:00.717Z,5.3
2023-03-15T00:15:00.743Z,5.3
2023-03-15T00:25:00.797Z,5.3
2023-03-15T00:30:00.750Z,5.3
2023-03-15T00:35:00.760Z,5.3
2023-03-15T00:40:00.818Z,5.3
2023-03-15T00:45:00.734Z,5.2
2023-03-15T00:50:00.765Z,5.2
2023-03-15T00:55:00.798Z,5.2
2023-03-15T01:00:00.803Z,5.2
2023-03-15T01:05:00.804Z,5.2
2023-03-15T01:10:00.773Z,5.2
2023-03-15T01:15:00.789Z,5.1
2023-03-15T01:20:00.877Z,5.1
2023-03-15T01:25:00.736Z,5.1
2023-03-15T01:30:00.815Z,5.1
2023-03-15T01:35:00.774Z,5.1
2023-03-15T01:40:00.757Z,5.1
2023-03-15T01:45:00.758Z,5.1
2023-03-15T01:50:00.729Z,5.1
2023-03-15T01:55:00.785Z,5.1
2023-03-15T02:00:00.778Z,5
2023-03-15T02:05:00.553Z,5
2023-03-15T02:10:00.771Z,5
2023-03-15T02:15:00.963Z,5
2023-03-15T02:20:00.771Z,5
2023-03-15T02:25:00.703Z,5
2023-03-15T02:30:00.753Z,4.9
2023-03-15T02:35:00.793Z,4.9
2023-03-15T02:40:00.793Z,4.8
2023-03-15T02:45:00.729Z,4.9
2023-03-15T02:50:00.707Z,4.9
2023-03-15T02:55:00.860Z,4.9
2023-03-15T03:00:00.704Z,4.8
2023-03-15T03:05:00.734Z,4.7
2023-03-15T03:10:00.677Z,4.7
2023-03-15T03:15:00.733Z,4.6
2023-03-15T03:20:00.810Z,4.5
2023-03-15T03:25:00.805Z,4.5
2023-03-15T03:30:00.782Z,4.4
2023-03-15T03:35:00.822Z,4.4
2023-03-15T03:40:00.794Z,4.4
2023-03-15T03:45:00.832Z,4.3
2023-03-15T03:50:00.784Z,4.3
2023-03-15T03:55:00.901Z,4.3
2023-03-15T04:00:00.763Z,4.2
2023-03-15T04:05:00.963Z,4.2
2023-03-15T04:10:00.783Z,4.2
2023-03-15T04:15:00.673Z,4.2
2023-03-15T04:20:00.812Z,4.1
2023-03-15T04:25:00.800Z,4.1
2023-03-15T04:30:00.761Z,4.1
2023-03-15T04:35:00.802Z,4.1
2023-03-15T04:45:00.753Z,4.1
2023-03-15T04:50:00.741Z,4.1
2023-03-15T04:55:00.805Z,4.1
2023-03-15T05:00:00.780Z,4
2023-03-15T05:05:00.805Z,4
2023-03-15T05:10:00.768Z,4.1
2023-03-15T05:15:00.884Z,4
2023-03-15T05:20:00.832Z,4
2023-03-15T05:25:00.730Z,4.1
2023-03-15T05:30:00.758Z,4
2023-03-15T05:35:00.722Z,4.1
2023-03-15T05:40:00.861Z,4.1
2023-03-15T05:45:00.761Z,4.1
2023-03-15T05:50:00.719Z,4.1
2023-03-15T05:55:00.803Z,4.1
2023-03-15T06:00:00.818Z,4.1
2023-03-15T06:05:00.776Z,4.2
2023-03-15T06:10:00.748Z,4.2
2023-03-15T06:15:00.715Z,4.2
2023-03-15T06:20:00.750Z,4.2
2023-03-15T06:25:00.788Z,4.2
2023-03-15T06:30:00.771Z,4.2
2023-03-15T06:35:00.852Z,4.2
2023-03-15T06:40:00.704Z,4.3
2023-03-15T06:45:00.777Z,4.3
2023-03-15T06:50:00.792Z,4.3
2023-03-15T06:55:00.984Z,4.4
2023-03-15T07:00:00.819Z,4.4
2023-03-15T07:05:00.932Z,4.4
2023-03-15T07:10:00.774Z,4.4
2023-03-15T07:15:00.796Z,4.4
2023-03-15T07:20:00.795Z,4.6
2023-03-15T07:25:00.661Z,4.6
2023-03-15T07:30:00.744Z,4.8
2023-03-15T07:35:00.780Z,4.9
2023-03-15T07:40:00.821Z,5.1
2023-03-15T07:45:00.720Z,5.4
2023-03-15T07:50:00.712Z,5.5
2023-03-15T07:55:00.793Z,5.5
2023-03-15T08:00:00.800Z,5.4
2023-03-15T08:05:00.793Z,5.2
2023-03-15T08:10:00.696Z,5.2
2023-03-15T08:15:00.836Z,5.2
2023-03-15T08:20:00.864Z,5.1
2023-03-15T08:25:00.713Z,5.1
2023-03-15T08:30:00.750Z,5.1
2023-03-15T08:35:00.794Z,5.1
2023-03-15T08:40:00.747Z,5.2
2023-03-15T08:45:00.761Z,5
2023-03-15T08:50:00.714Z,5.1
2023-03-15T08:55:00.753Z,5
2023-03-15T09:00:00.841Z,5.2
2023-03-15T09:05:00.748Z,5
2023-03-15T09:10:01.998Z,4.9
2023-03-15T09:15:00.742Z,4.8
2023-03-15T09:20:00.764Z,4.8
2023-03-15T09:25:00.846Z,4.9
2023-03-15T09:30:00.796Z,4.9
2023-03-15T09:35:00.785Z,4.9
2023-03-15T09:40:00.830Z,4.8
2023-03-15T09:45:00.854Z,4.8
2023-03-15T09:50:00.701Z,4.8
2023-03-15T09:55:00.821Z,4.7
2023-03-15T10:00:00.777Z,4.9
2023-03-15T10:10:00.798Z,5
2023-03-15T10:15:00.854Z,4.8
2023-03-15T10:20:00.747Z,5.1
2023-03-15T10:25:00.794Z,4.7
2023-03-15T10:30:00.792Z,4.8
2023-03-15T10:35:00.772Z,4.6
2023-03-15T10:40:00.749Z,4.4
2023-03-15T10:45:00.743Z,4.1
2023-03-15T10:50:00.733Z,4.1
2023-03-15T10:55:04.264Z,4.2
2023-03-15T11:00:00.928Z,4.2
2023-03-15T11:05:00.761Z,4.4
2023-03-15T11:10:00.764Z,4.2
2023-03-15T11:15:00.792Z,4.1
2023-03-15T11:20:00.752Z,4.4
2023-03-15T11:25:00.775Z,4
2023-03-15T11:30:00.727Z,3.9
2023-03-15T11:35:00.830Z,3.9
2023-03-15T11:40:10.739Z,3.8
2023-03-15T11:45:00.764Z,3.8
2023-03-15T11:50:00.735Z,3.6
2023-03-15T11:55:00.785Z,3.6
2023-03-15T12:00:00.750Z,3.5
2023-03-15T12:05:06.379Z,3.5
2023-03-15T12:10:00.714Z,3.8
2023-03-15T12:15:00.855Z,3.7
2023-03-15T12:20:00.814Z,3.7
2023-03-15T12:25:00.798Z,3.8
2023-03-15T12:30:00.727Z,3.7
2023-03-15T12:35:00.759Z,3.8
2023-03-15T12:40:00.735Z,3.8
2023-03-15T12:45:00.732Z,3.6
2023-03-15T12:50:00.870Z,3.5
2023-03-15T12:55:00.787Z,3.5
2023-03-15T13:00:00.821Z,3.9
2023-03-15T13:05:00.861Z,3.9
2023-03-15T13:10:00.899Z,3.7
2023-03-15T13:15:00.688Z,3.7
2023-03-15T13:20:00.797Z,3.5
2023-03-15T13:25:00.708Z,3.6
2023-03-15T13:30:00.717Z,3.8
2023-03-15T13:35:00.727Z,3.7
2023-03-15T13:40:00.738Z,3.8
2023-03-15T13:45:00.768Z,3.6
2023-03-15T13:50:00.765Z,3.8
2023-03-15T13:55:00.737Z,3.8
2023-03-15T14:00:00.892Z,4.1
2023-03-15T14:05:00.776Z,4
2023-03-15T14:10:00.696Z,4
2023-03-15T14:15:00.725Z,4
2023-03-15T14:20:00.729Z,3.9
2023-03-15T14:25:00.738Z,3.9
2023-03-15T14:30:00.723Z,3.8
2023-03-15T14:35:00.816Z,3.9
2023-03-15T14:40:00.819Z,3.8
2023-03-15T14:45:00.716Z,4
2023-03-15T14:50:00.760Z,4.2
2023-03-15T14:55:00.889Z,4
2023-03-15T15:00:00.785Z,4
2023-03-15T15:05:00.778Z,4.2
2023-03-15T15:10:00.728Z,4.2
2023-03-15T15:15:00.936Z,4.2
2023-03-15T15:20:00.885Z,4.1
2023-03-15T15:25:00.864Z,4.2
2023-03-15T15:30:00.891Z,4.1
2023-03-15T15:35:00.881Z,4.1
2023-03-15T15:40:00.730Z,4.2
2023-03-15T15:45:00.823Z,4
2023-03-15T15:50:00.814Z,4.1
2023-03-15T15:55:00.884Z,4
2023-03-15T16:00:00.686Z,4
2023-03-15T16:05:00.842Z,4.1
2023-03-15T16:10:00.867Z,4.1
2023-03-15T16:15:00.769Z,4.1
2023-03-15T16:20:00.838Z,4.1
2023-03-15T16:25:00.745Z,4
2023-03-15T16:30:00.746Z,4
2023-03-15T16:35:00.835Z,4.1
2023-03-15T16:40:00.882Z,4
2023-03-15T16:45:01.181Z,4.1
2023-03-15T16:50:00.924Z,4
2023-03-15T16:55:00.860Z,4
2023-03-15T17:00:02.138Z,4
2023-03-15T17:05:00.690Z,4
2023-03-15T17:10:00.738Z,3.9
2023-03-15T17:15:00.757Z,4
2023-03-15T17:20:00.836Z,3.9
2023-03-15T17:25:00.875Z,4
2023-03-15T17:30:00.772Z,3.9
2023-03-15T17:35:00.762Z,4
2023-03-15T17:40:00.758Z,4.1
2023-03-15T17:45:00.795Z,4.1
2023-03-15T17:50:00.743Z,4.2
2023-03-15T17:55:00.774Z,4.2
2023-03-15T18:00:00.714Z,4.1
2023-03-15T18:05:00.756Z,4.1
2023-03-15T18:10:00.849Z,4.2
2023-03-15T18:15:01.268Z,4.2
2023-03-15T18:20:00.978Z,4.2
2023-03-15T18:25:00.868Z,4.2
2023-03-15T18:30:00.764Z,4.2
2023-03-15T18:35:00.769Z,4.1
2023-03-15T18:40:00.746Z,4.2
2023-03-15T18:45:00.839Z,4.1
2023-03-15T18:50:09.503Z,4.2
2023-03-15T19:00:00.750Z,4.1
2023-03-15T19:05:00.863Z,4.1
2023-03-15T19:10:00.826Z,4.1
2023-03-15T19:15:00.782Z,4.1
2023-03-15T19:20:00.904Z,4
2023-03-15T19:25:00.772Z,4
2023-03-15T19:30:00.780Z,4
2023-03-15T19:35:00.857Z,4
2023-03-15T19:40:00.845Z,4
2023-03-15T19:45:00.769Z,4
2023-03-15T19:50:00.814Z,4
2023-03-15T19:55:00.825Z,4
2023-03-15T20:00:00.785Z,3.9
2023-03-15T20:05:00.763Z,4
2023-03-15T20:10:00.771Z,3.9
2023-03-15T20:15:00.844Z,3.9
2023-03-15T20:20:00.741Z,3.9
2023-03-15T20:25:00.820Z,3.9
2023-03-15T20:30:00.853Z,3.9
2023-03-15T20:35:00.773Z,3.9
2023-03-15T20:40:00.878Z,3.9
2023-03-15T20:45:00.884Z,3.9
2023-03-15T20:50:00.922Z,3.9
2023-03-15T20:55:00.777Z,3.9
2023-03-15T21:00:00.774Z,3.9
2023-03-15T21:05:00.757Z,3.9
2023-03-15T21:10:00.937Z,3.9
2023-03-15T21:15:00.796Z,3.9
2023-03-15T21:25:00.869Z,3.9
2023-03-15T21:30:00.839Z,3.9
2023-03-15T21:35:00.768Z,3.8
2023-03-15T21:40:00.753Z,3.8
2023-03-15T21:45:00.804Z,3.8
2023-03-15T21:50:00.806Z,3.8
2023-03-15T21:55:00.729Z,3.8
2023-03-15T22:00:00.829Z,3.8
2023-03-15T22:05:00.846Z,3.8
2023-03-15T22:10:00.963Z,3.9
2023-03-15T22:15:05.534Z,3.9
2023-03-15T22:20:00.841Z,3.8
2023-03-15T22:25:00.835Z,3.8
2023-03-15T22:30:00.751Z,3.8
2023-03-15T22:35:01.521Z,3.9
2023-03-15T22:40:00.867Z,3.9
2023-03-15T22:45:00.843Z,3.9
2023-03-15T22:50:00.687Z,3.8
2023-03-15T22:55:00.718Z,3.8
2023-03-15T23:00:00.803Z,3.8
2023-03-15T23:05:00.785Z,3.7
2023-03-15T23:10:00.694Z,3.7
2023-03-15T23:15:03.613Z,3.7
2023-03-15T23:20:00.780Z,3.7
2023-03-15T23:25:00.724Z,3.7
2023-03-15T23:30:00.893Z,3.7
2023-03-15T23:35:00.777Z,3.7
2023-03-15T23:45:00.944Z,3.7
2023-03-15T23:50:00.786Z,3.7
2023-03-15T23:55:00.700Z,3.7
